Terminal Aerodrome Forecast
Issued by NWS

Home | Current Version | Previous Version | Text Only | Print | Product List | Glossary On
Versions: 1 2 3 4 5 6 7 8 9 10 11 12 13 14 15 16
398
FTUS46 KLOX 250820 AAA
TAFWJF
TAF AMD
KWJF 250820Z 2508/2606 26007KT P6SM SKC
     FM252100 24018G30KT P6SM SKC
     FM260400 26015KT P6SM SKC=

USA.gov is the U.S. government's official web portal to all federal, state and local government web resources and services.